Main page
METAR-TAF:

METAR-TAF

Airports :

Trang Airport

Trang, Thailand

latitude: 07-31N, longitude: 099-37E, elevation: 14 m

Current weather observation

The report was made 2 hours and 56 minutes ago, at 15:00 UTC
Wind 11 kt from the East/Northeast
Temperature 26°C
Humidity 74%
Pressure 1012 hPa
Visibility 10 km or more
Few clouds at a height of 2000 ft

METAR: VTST 091500Z 07011KT 9999 FEW020 26/21 Q1012 NOSIG

Time: 00:56 (17:56 UTC)

Forecast

The report was made 56 minutes ago, at 17:00 UTC
Forecast valid from 09 at 18 UTC to 10 at 18 UTC
Wind 10 kt from the East/Northeast
Visibility 10 km or more
Few clouds at a height of 2000 ft

TAF: VTST 091700Z 0918/1018 06010KT 9999 FEW020

Weather observations and forecasts of more than 4000 airports (METAR and TAF reports).

The available stations are represented by yellow and red dots on the map.

Hover mouse over dot to see the name of the station.

Then click to see weather observations and forecasts.

To change the map : click on the green buttons with a black cross to zoom in, on the green button with a dash to zoom out, or on the green arrows for adjacent maps.


METAR-TAF: